| time (UTC) | temp F | wind direction | speed MPH | gust MPH | rain 1hr in | rain 24hr in | rain mn in | humidity % | barometer mb |
| 20260506201928 | 57 | 231 | 6.0 | 15.0 | 0.00 | 0.42 | 0.42 | 95 | 999.5 |
| 20260506201906 | 57 | 221 | 7.0 | 15.0 | 0.00 | 0.42 | 0.42 | 95 | 999.4 |
| 20260506200923 | 57 | 250 | 5.0 | 12.0 | 0.00 | 0.42 | 0.42 | 95 | 999.6 |
| 20260506200859 | 57 | 206 | 6.0 | 13.0 | 0.00 | 0.42 | 0.42 | 96 | 999.6 |
| 20260506195807 | 58 | 218 | 6.0 | 13.0 | 0.00 | 0.42 | 0.42 | 95 | 999.6 |
| 20260506195306 | 58 | 248 | 6.0 | 13.0 | 0.00 | 0.42 | 0.42 | 95 | 999.7 |
| 20260506194804 | 58 | 225 | 6.0 | 13.0 | 0.00 | 0.42 | 0.42 | 95 | 999.7 |
| 20260506194303 | 58 | 271 | 6.0 | 11.0 | 0.00 | 0.42 | 0.42 | 95 | 999.7 |
| 20260506193803 | 58 | 234 | 6.0 | 11.0 | 0.00 | 0.42 | 0.42 | 95 | 999.7 |
| 20260506193301 | 58 | 236 | 7.0 | 15.0 | 0.00 | 0.42 | 0.42 | 95 | 999.8 |
| 20260506192805 | 58 | 222 | 8.0 | 15.0 | 0.00 | 0.42 | 0.42 | 95 | 999.8 |
| 20260506192300 | 58 | 208 | 8.0 | 15.0 | 0.00 | 0.42 | 0.42 | 95 | 999.7 |
| 20260506191803 | 57 | 221 | 8.0 | 19.0 | 0.00 | 0.42 | 0.42 | 95 | 999.7 |
| 20260506191302 | 57 | 234 | 8.0 | 19.0 | 0.00 | 0.42 | 0.42 | 96 | 999.7 |
| 20260506190801 | 57 | 222 | 7.0 | 12.0 | 0.00 | 0.42 | 0.42 | 96 | 999.8 |
| 20260506190301 | 57 | 211 | 7.0 | 12.0 | 0.00 | 0.42 | 0.42 | 96 | 999.8 |
| 20260506185801 | 57 | 231 | 6.0 | 11.0 | 0.00 | 0.42 | 0.42 | 96 | 999.8 |
| 20260506185300 | 57 | 245 | 6.0 | 13.0 | 0.00 | 0.42 | 0.42 | 96 | 999.8 |
| 20260506184801 | 57 | 248 | 7.0 | 14.0 | 0.00 | 0.42 | 0.42 | 96 | 999.8 |
| 20260506184557 | 57 | 223 | 7.0 | 16.0 | 0.00 | 0.42 | 0.42 | 96 | 999.9 |
| 20260506184104 | 57 | 220 | 8.0 | 16.0 | 0.00 | 0.42 | 0.42 | 96 | 999.9 |
| 20260506183302 | 57 | 229 | 7.0 | 15.0 | 0.00 | 0.42 | 0.42 | 96 | 1000.0 |
| 20260506182757 | 57 | 217 | 7.0 | 12.0 | 0.00 | 0.42 | 0.42 | 96 | 1000.0 |
| 20260506182251 | 57 | 204 | 8.0 | 18.0 | 0.01 | 0.42 | 0.42 | 96 | 1000.1 |
| 20260506181744 | 57 | 203 | 8.0 | 18.0 | 0.01 | 0.42 | 0.42 | 96 | 1000.0 |
| 20260506181239 | 57 | 202 | 7.0 | 16.0 | 0.02 | 0.42 | 0.42 | 97 | 1000.0 |
| 20260506181035 | 57 | 211 | 7.0 | 17.0 | 0.02 | 0.42 | 0.42 | 97 | 1000.1 |
| 20260506180230 | 57 | 209 | 7.0 | 12.0 | 0.03 | 0.42 | 0.42 | 97 | 1000.2 |
| 20260506175731 | 57 | 255 | 6.0 | 12.0 | 0.04 | 0.42 | 0.42 | 97 | 1000.2 |
| 20260506175230 | 57 | 214 | 5.0 | 11.0 | 0.05 | 0.42 | 0.42 | 97 | 1000.2 |
| 20260506174733 | 57 | 213 | 5.0 | 12.0 | 0.05 | 0.42 | 0.42 | 97 | 1000.1 |
| 20260506174233 | 57 | 219 | 5.0 | 12.0 | 0.07 | 0.42 | 0.42 | 97 | 1000.2 |
| 20260506173733 | 57 | 245 | 5.0 | 10.0 | 0.07 | 0.42 | 0.42 | 97 | 1000.2 |
| 20260506173230 | 57 | 207 | 5.0 | 10.0 | 0.08 | 0.42 | 0.42 | 97 | 1000.2 |
| 20260506172730 | 57 | 210 | 5.0 | 10.0 | 0.08 | 0.42 | 0.42 | 97 | 1000.2 |
| 20260506172527 | 57 | 201 | 5.0 | 13.0 | 0.08 | 0.41 | 0.41 | 97 | 1000.3 |
| 20260506172035 | 57 | 231 | 5.0 | 13.0 | 0.08 | 0.41 | 0.41 | 97 | 1000.3 |
| 20260506171231 | 57 | 223 | 5.0 | 10.0 | 0.08 | 0.40 | 0.40 | 97 | 1000.5 |
| 20260506170730 | 57 | 250 | 5.0 | 12.0 | 0.09 | 0.40 | 0.40 | 97 | 1000.5 |
| 20260506170527 | 57 | 229 | 5.0 | 12.0 | 0.09 | 0.39 | 0.39 | 97 | 1000.5 |
| 20260506170036 | 56 | 176 | 6.0 | 14.0 | 0.08 | 0.38 | 0.38 | 97 | 1000.5 |
| 20260506165230 | 56 | 185 | 6.0 | 14.0 | 0.08 | 0.37 | 0.37 | 97 | 1000.5 |
| 20260506164730 | 56 | 220 | 6.0 | 11.0 | 0.09 | 0.37 | 0.37 | 97 | 1000.5 |
| 20260506164231 | 56 | 210 | 6.0 | 12.0 | 0.07 | 0.35 | 0.35 | 97 | 1000.5 |
| 20260506164030 | 56 | 243 | 6.0 | 15.0 | 0.08 | 0.35 | 0.35 | 97 | 1000.5 |
| 20260506163221 | 57 | 208 | 7.0 | 15.0 | 0.09 | 0.34 | 0.34 | 97 | 1000.5 |
| 20260506162715 | 57 | 271 | 7.0 | 13.0 | 0.09 | 0.34 | 0.34 | 97 | 1000.3 |
| 20260506162209 | 57 | 224 | 7.0 | 17.0 | 0.10 | 0.33 | 0.33 | 97 | 1000.5 |
| 20260506161703 | 56 | 206 | 6.0 | 17.0 | 0.11 | 0.33 | 0.33 | 97 | 1000.6 |
| 20260506161204 | 56 | 214 | 5.0 | 9.0 | 0.10 | 0.32 | 0.32 | 97 | 1000.6 |
| 20260506160704 | 56 | 259 | 5.0 | 12.0 | 0.10 | 0.31 | 0.31 | 97 | 1000.7 |
| 20260506160425 | 56 | 223 | 6.0 | 12.0 | 0.09 | 0.29 | 0.29 | 97 | 1000.7 |
| 20260506160417 | 56 | 245 | 7.0 | 12.0 | 0.09 | 0.29 | 0.29 | 97 | 1000.9 |
| 20260506160339 | 56 | 236 | 6.0 | 12.0 | 0.10 | 0.30 | 0.30 | 97 | 1000.9 |
| 20260506154705 | 56 | 219 | 8.0 | 19.0 | 0.09 | 0.28 | 0.28 | 97 | 1000.9 |
| 20260506154205 | 56 | 220 | 8.0 | 19.0 | 0.09 | 0.28 | 0.27 | 97 | 1000.9 |
| 20260506153705 | 56 | 170 | 6.0 | 14.0 | 0.08 | 0.27 | 0.26 | 97 | 1001.1 |
| 20260506153204 | 56 | 145 | 6.0 | 12.0 | 0.06 | 0.25 | 0.25 | 97 | 1001.0 |
| 20260506153001 | 56 | 194 | 6.0 | 16.0 | 0.05 | 0.24 | 0.24 | 97 | 1001.0 |
| 20260506152205 | 56 | 226 | 6.0 | 16.0 | 0.04 | 0.23 | 0.23 | 97 | 1000.9 |
| 20260506151703 | 56 | 223 | 6.0 | 10.0 | 0.04 | 0.22 | 0.22 | 97 | 1000.7 |
| 20260506151205 | 56 | 231 | 6.0 | 10.0 | 0.05 | 0.22 | 0.22 | 97 | 1000.7 |
| 20260506150704 | 56 | 0 | 5.0 | 10.0 | 0.06 | 0.21 | 0.21 | 97 | 1000.7 |
| 20260506150505 | 56 | 208 | 4.0 | 10.0 | 0.06 | 0.20 | 0.20 | 97 | 1000.6 |
| 20260506145703 | 56 | 286 | 5.0 | 12.0 | 0.07 | 0.20 | 0.20 | 97 | 1000.6 |
| 20260506145203 | 56 | 252 | 6.0 | 12.0 | 0.08 | 0.20 | 0.20 | 97 | 1000.7 |
| 20260506144703 | 56 | 210 | 5.0 | 11.0 | 0.08 | 0.19 | 0.19 | 97 | 1000.7 |
| 20260506144203 | 56 | 222 | 5.0 | 10.0 | 0.09 | 0.19 | 0.19 | 97 | 1000.8 |
| 20260506143704 | 56 | 203 | 5.0 | 10.0 | 0.10 | 0.19 | 0.19 | 97 | 1000.7 |
| 20260506143205 | 56 | 187 | 5.0 | 10.0 | 0.11 | 0.19 | 0.19 | 96 | 1000.6 |
| 20260506143007 | 56 | 191 | 5.0 | 10.0 | 0.12 | 0.19 | 0.19 | 96 | 1000.8 |
| 20260506142204 | 56 | 204 | 4.0 | 9.0 | 0.13 | 0.19 | 0.18 | 96 | 1000.9 |
| 20260506141703 | 56 | 192 | 4.0 | 8.0 | 0.13 | 0.18 | 0.18 | 96 | 1001.0 |
| 20260506141203 | 56 | 220 | 4.0 | 11.0 | 0.13 | 0.17 | 0.17 | 95 | 1001.1 |
| 20260506140703 | 56 | 174 | 5.0 | 11.0 | 0.12 | 0.15 | 0.15 | 95 | 1001.2 |
| 20260506140204 | 56 | 250 | 4.0 | 10.0 | 0.12 | 0.14 | 0.14 | 95 | 1001.3 |
| 20260506135947 | 56 | 240 | 4.0 | 10.0 | 0.12 | 0.13 | 0.13 | 95 | 1001.4 |
| 20260506135201 | 56 | 173 | 5.0 | 10.0 | 0.12 | 0.12 | 0.12 | 94 | 1001.4 |
| 20260506134701 | 56 | 226 | 5.0 | 10.0 | 0.11 | 0.11 | 0.11 | 94 | 1001.4 |
| 20260506134202 | 56 | 216 | 6.0 | 10.0 | 0.10 | 0.10 | 0.10 | 93 | 1001.5 |
| 20260506133700 | 56 | 233 | 5.0 | 9.0 | 0.09 | 0.09 | 0.09 | 93 | 1001.5 |
| 20260506133201 | 57 | 186 | 6.0 | 11.0 | 0.08 | 0.08 | 0.08 | 93 | 1001.6 |
| 20260506132701 | 57 | 197 | 6.0 | 13.0 | 0.07 | 0.07 | 0.07 | 92 | 1001.7 |
| 20260506132319 | 57 | 203 | 7.0 | 13.0 | 0.05 | 0.05 | 0.04 | 91 | 1001.8 |
| 20260506132251 | 57 | 236 | 6.0 | 13.0 | 0.06 | 0.06 | 0.06 | 92 | 1001.7 |
| 20260506131203 | 57 | 239 | 6.0 | 12.0 | 0.04 | 0.04 | 0.04 | 90 | 1001.8 |
| 20260506130703 | 57 | 229 | 5.0 | 11.0 | 0.03 | 0.03 | 0.03 | 89 | 1001.8 |
| 20260506130202 | 58 | 202 | 5.0 | 10.0 | 0.02 | 0.02 | 0.01 | 87 | 1001.8 |
| 20260506125702 | 58 | 226 | 5.0 | 9.0 | 0.01 | 0.01 | 0.01 | 86 | 1001.7 |
| 20260506125204 | 58 | 229 | 5.0 | 9.0 | 0.00 | 0.00 | 0.00 | 84 | 1001.5 |
| 20260506124703 | 59 | 193 | 5.0 | 9.0 | 0.00 | 0.00 | 0.00 | 82 | 1001.4 |
| 20260506124202 | 59 | 216 | 4.0 | 9.0 | 0.00 | 0.00 | 0.00 | 80 | 1001.3 |
| 20260506123702 | 59 | 220 | 5.0 | 8.0 | 0.00 | 0.00 | 0.00 | 79 | 1001.2 |
| 20260506123203 | 60 | 213 | 5.0 | 10.0 | 0.00 | 0.00 | 0.00 | 78 | 1001.2 |
| 20260506122703 | 60 | 233 | 4.0 | 10.0 | 0.00 | 0.00 | 0.00 | 77 | 1001.2 |
| 20260506122202 | 60 | 221 | 4.0 | 9.0 | 0.00 | 0.00 | 0.00 | 76 | 1001.3 |
| 20260506121703 | 60 | 204 | 5.0 | 10.0 | 0.00 | 0.00 | 0.00 | 75 | 1001.3 |
| 20260506121202 | 60 | 194 | 5.0 | 10.0 | 0.00 | 0.00 | 0.00 | 74 | 1001.3 |
| 20260506120703 | 60 | 206 | 4.0 | 8.0 | 0.00 | 0.00 | 0.00 | 73 | 1001.4 |
| 20260506120202 | 60 | 210 | 3.0 | 8.0 | 0.00 | 0.00 | 0.00 | 72 | 1001.5 |
| 20260506115704 | 60 | 219 | 3.0 | 8.0 | 0.00 | 0.00 | 0.00 | 72 | 1001.4 |
| 20260506115456 | 60 | 210 | 4.0 | 8.0 | 0.00 | 0.00 | 0.00 | 72 | 1001.4 |
| 20260506114704 | 60 | 192 | 5.0 | 8.0 | 0.00 | 0.00 | 0.00 | 72 | 1001.4 |
| 20260506114204 | 60 | 165 | 5.0 | 10.0 | 0.00 | 0.00 | 0.00 | 71 | 1001.4 |
| 20260506113704 | 60 | 220 | 5.0 | 11.0 | 0.00 | 0.00 | 0.00 | 72 | 1001.4 |
| 20260506113204 | 60 | 227 | 4.0 | 11.0 | 0.00 | 0.00 | 0.00 | 71 | 1001.4 |
| 20260506112705 | 60 | 214 | 4.0 | 9.0 | 0.00 | 0.00 | 0.00 | 71 | 1001.3 |
| 20260506112500 | 60 | 178 | 4.0 | 8.0 | 0.00 | 0.00 | 0.00 | 71 | 1001.4 |
| 20260506111703 | 60 | 170 | 3.0 | 7.0 | 0.00 | 0.00 | 0.00 | 71 | 1001.4 |
| 20260506111205 | 60 | 202 | 3.0 | 6.0 | 0.00 | 0.00 | 0.00 | 70 | 1001.5 |
| 20260506110704 | 60 | 203 | 3.0 | 6.0 | 0.00 | 0.00 | 0.00 | 70 | 1001.4 |
| 20260506110203 | 60 | 210 | 3.0 | 5.0 | 0.00 | 0.00 | 0.00 | 70 | 1001.4 |
| 20260506105702 | 60 | 223 | 3.0 | 6.0 | 0.00 | 0.00 | 0.00 | 70 | 1001.4 |
| 20260506105202 | 60 | 240 | 4.0 | 7.0 | 0.00 | 0.00 | 0.00 | 70 | 1001.3 |
| 20260506104702 | 60 | 219 | 3.0 | 7.0 | 0.00 | 0.00 | 0.00 | 70 | 1001.2 |
| 20260506104202 | 60 | 253 | 3.0 | 8.0 | 0.00 | 0.00 | 0.00 | 70 | 1001.0 |
| 20260506104000 | 60 | 238 | 3.0 | 8.0 | 0.00 | 0.00 | 0.00 | 69 | 1001.1 |
| 20260506103500 | 60 | 223 | 2.0 | 5.0 | 0.00 | 0.00 | 0.00 | 70 | 1001.0 |
| 20260506102703 | 60 | 209 | 3.0 | 7.0 | 0.00 | 0.00 | 0.00 | 69 | 1001.1 |
| 20260506102202 | 60 | 188 | 2.0 | 7.0 | 0.00 | 0.00 | 0.00 | 68 | 1001.1 |
| 20260506101703 | 60 | 229 | 2.0 | 5.0 | 0.00 | 0.00 | 0.00 | 68 | 1001.0 |
| 20260506101202 | 60 | 213 | 3.0 | 6.0 | 0.00 | 0.00 | 0.00 | 68 | 1000.9 |
| 20260506100959 | 60 | 220 | 3.0 | 7.0 | 0.00 | 0.00 | 0.00 | 68 | 1001.0 |
| 20260506100203 | 60 | 214 | 3.0 | 7.0 | 0.00 | 0.00 | 0.00 | 67 | 1001.1 |
| 20260506095702 | 60 | 213 | 2.0 | 6.0 | 0.00 | 0.00 | 0.00 | 67 | 1001.2 |
| 20260506095203 | 60 | 219 | 2.0 | 5.0 | 0.00 | 0.00 | 0.00 | 66 | 1001.2 |
| 20260506094703 | 60 | 233 | 2.0 | 5.0 | 0.00 | 0.00 | 0.00 | 66 | 1001.2 |
| 20260506094205 | 60 | 150 | 2.0 | 5.0 | 0.00 | 0.00 | 0.00 | 66 | 1001.1 |
| 20260506093701 | 60 | 227 | 2.0 | 5.0 | 0.00 | 0.00 | 0.00 | 65 | 1001.0 |
| 20260506093201 | 60 | 221 | 2.0 | 5.0 | 0.00 | 0.00 | 0.00 | 65 | 1000.9 |
| 20260506092701 | 60 | 227 | 2.0 | 5.0 | 0.00 | 0.00 | 0.00 | 65 | 1000.9 |
| 20260506092201 | 60 | 223 | 2.0 | 7.0 | 0.00 | 0.00 | 0.00 | 65 | 1000.9 |
| 20260506091956 | 60 | 199 | 3.0 | 7.0 | 0.00 | 0.00 | 0.00 | 64 | 1001.0 |
| 20260506091200 | 60 | 233 | 3.0 | 6.0 | 0.00 | 0.00 | 0.00 | 64 | 1001.0 |
| 20260506090701 | 60 | 236 | 3.0 | 6.0 | 0.00 | 0.00 | 0.00 | 64 | 1001.0 |
| 20260506090609 | 60 | 222 | 4.0 | 7.0 | 0.00 | 0.00 | 0.00 | 63 | 1001.2 |
| 20260506090248 | 60 | 238 | 4.0 | 6.0 | 0.00 | 0.00 | 0.00 | 64 | 1001.1 |
| 20260506085506 | 60 | 230 | 3.0 | 7.0 | 0.00 | 0.00 | 0.00 | 64 | 1001.3 |
| 20260506084703 | 60 | 202 | 3.0 | 7.0 | 0.00 | 0.00 | 0.00 | 65 | 1001.3 |
| 20260506084201 | 60 | 231 | 3.0 | 8.0 | 0.00 | 0.00 | 0.00 | 65 | 1001.5 |
| 20260506083701 | 60 | 231 | 4.0 | 8.0 | 0.00 | 0.00 | 0.00 | 65 | 1001.4 |
| 20260506083203 | 60 | 233 | 4.0 | 7.0 | 0.00 | 0.00 | 0.00 | 65 | 1001.4 |
| 20260506082704 | 59 | 227 | 3.0 | 6.0 | 0.00 | 0.00 | 0.00 | 66 | 1001.4 |
| 20260506082204 | 59 | 195 | 2.0 | 5.0 | 0.00 | 0.00 | 0.00 | 65 | 1001.1 |
| 20260506081704 | 59 | 215 | 2.0 | 4.0 | 0.00 | 0.00 | 0.00 | 67 | 1001.2 |
| 20260506081500 | 59 | 231 | 2.0 | 4.0 | 0.00 | 0.00 | 0.00 | 67 | 1001.1 |
| 20260506080701 | 59 | 262 | 2.0 | 4.0 | 0.00 | 0.00 | 0.00 | 66 | 1001.1 |
| 20260506080201 | 59 | 222 | 2.0 | 4.0 | 0.00 | 0.00 | 0.00 | 66 | 1001.0 |
| 20260506073201 | 59 | 300 | 2.0 | 4.0 | 0.00 | 0.00 | 0.00 | 68 | 1001.4 |
| 20260506072701 | 59 | 288 | 2.0 | 5.0 | 0.00 | 0.00 | 0.00 | 66 | 1001.4 |
| 20260506072201 | 59 | 201 | 2.0 | 5.0 | 0.00 | 0.00 | 0.00 | 67 | 1001.4 |
| 20260506071701 | 59 | 269 | 2.0 | 5.0 | 0.00 | 0.00 | 0.00 | 67 | 1001.5 |
| 20260506071200 | 59 | 226 | 2.0 | 5.0 | 0.00 | 0.00 | 0.00 | 67 | 1001.5 |
| 20260506070700 | 59 | 233 | 2.0 | 4.0 | 0.00 | 0.00 | 0.00 | 68 | 1001.6 |
| 20260506070203 | 58 | 220 | 2.0 | 4.0 | 0.00 | 0.00 | 0.00 | 68 | 1001.6 |
| 20260506062200 | 59 | 223 | 2.0 | 4.0 | 0.00 | 0.00 | 0.00 | 69 | 1001.9 |
| 20260506061701 | 58 | 216 | 2.0 | 5.0 | 0.00 | 0.00 | 0.00 | 68 | 1001.9 |
| 20260506061201 | 59 | 227 | 2.0 | 5.0 | 0.00 | 0.00 | 0.00 | 69 | 1002.0 |
| 20260506060701 | 59 | 233 | 2.0 | 4.0 | 0.00 | 0.00 | 0.00 | 69 | 1001.9 |
| 20260506060200 | 59 | 213 | 2.0 | 4.0 | 0.00 | 0.00 | 0.00 | 69 | 1002.0 |
| 20260506051205 | 58 | 253 | 2.0 | 3.0 | 0.00 | 0.00 | 0.00 | 71 | 1002.5 |
| 20260506050705 | 58 | 269 | 2.0 | 3.0 | 0.00 | 0.00 | 0.00 | 72 | 1002.3 |
| 20260506050205 | 58 | 286 | 2.0 | 3.0 | 0.00 | 0.00 | 0.00 | 72 | 1002.3 |
| 20260506044701 | 59 | 250 | 1.0 | 2.0 | 0.00 | 0.00 | 0.00 | 71 | 1002.2 |
| 20260506044202 | 59 | 240 | 2.0 | 4.0 | 0.00 | 0.00 | 0.00 | 71 | 1002.2 |
| 20260506043701 | 59 | 245 | 2.0 | 4.0 | 0.00 | 0.00 | 0.00 | 71 | 1002.5 |
| 20260506043202 | 59 | 269 | 2.0 | 3.0 | 0.00 | 0.00 | 0.00 | 71 | 1002.5 |
| 20260506042701 | 59 | 283 | 2.0 | 3.0 | 0.00 | 0.00 | 0.00 | 70 | 1002.5 |
| 20260506042201 | 60 | 269 | 2.0 | 4.0 | 0.00 | 0.00 | 0.00 | 70 | 1002.6 |
| 20260506041701 | 60 | 269 | 2.0 | 4.0 | 0.00 | 0.00 | 0.00 | 69 | 1002.8 |
| 20260506041458 | 60 | 283 | 2.0 | 3.0 | 0.00 | 0.00 | 0.00 | 69 | 1002.6 |
| 20260506040809 | 61 | 279 | 1.0 | 2.0 | 0.00 | 0.00 | 0.00 | 68 | 1002.8 |
| 20260506040743 | 60 | 276 | 2.0 | 3.0 | 0.00 | 0.00 | 0.00 | 68 | 1002.7 |
| 20260506035950 | 61 | 269 | 1.0 | 3.0 | 0.00 | 0.00 | 0.00 | 67 | 1002.7 |
| 20260506035202 | 61 | 233 | 2.0 | 3.0 | 0.00 | 0.00 | 0.00 | 66 | 1002.7 |
| 20260506034700 | 61 | 253 | 2.0 | 3.0 | 0.00 | 0.00 | 0.00 | 66 | 1002.9 |
| 20260506034201 | 62 | 277 | 2.0 | 5.0 | 0.00 | 0.00 | 0.00 | 66 | 1002.8 |
| 20260506033700 | 62 | 258 | 2.0 | 5.0 | 0.00 | 0.00 | 0.00 | 65 | 1002.7 |
| 20260506033210 | 62 | 240 | 2.0 | 5.0 | 0.00 | 0.00 | 0.00 | 64 | 1002.6 |
| 20260506033202 | 62 | 257 | 2.0 | 5.0 | 0.00 | 0.00 | 0.00 | 65 | 1002.8 |
| 20260506033157 | 63 | 201 | 2.0 | 4.0 | 0.00 | 0.00 | 0.00 | 64 | 1002.6 |
| 20260506033150 | 62 | 209 | 2.0 | 5.0 | 0.00 | 0.00 | 0.00 | 64 | 1002.8 |
| 20260506031202 | 63 | 240 | 2.0 | 4.0 | 0.00 | 0.00 | 0.00 | 63 | 1002.7 |
| 20260506030702 | 63 | 257 | 2.0 | 4.0 | 0.00 | 0.00 | 0.00 | 62 | 1002.7 |
| 20260506030157 | 64 | 248 | 2.0 | 4.0 | 0.00 | 0.00 | 0.00 | 62 | 1002.6 |
| 20260506025652 | 64 | 245 | 2.0 | 4.0 | 0.00 | 0.00 | 0.00 | 61 | 1002.6 |
| 20260506025145 | 64 | 252 | 2.0 | 4.0 | 0.00 | 0.00 | 0.00 | 61 | 1002.6 |
| 20260506024638 | 65 | 214 | 3.0 | 6.0 | 0.00 | 0.00 | 0.00 | 60 | 1002.6 |
| 20260506024133 | 65 | 238 | 3.0 | 6.0 | 0.00 | 0.00 | 0.00 | 59 | 1002.6 |
| 20260506023629 | 65 | 231 | 2.0 | 5.0 | 0.00 | 0.00 | 0.00 | 59 | 1002.7 |
| 20260506023130 | 66 | 201 | 2.0 | 3.0 | 0.00 | 0.00 | 0.00 | 59 | 1002.7 |
| 20260506022630 | 66 | 236 | 2.0 | 4.0 | 0.00 | 0.00 | 0.00 | 58 | 1002.7 |
| 20260506022130 | 66 | 269 | 3.0 | 6.0 | 0.00 | 0.00 | 0.00 | 58 | 1002.7 |
| 20260506021630 | 67 | 253 | 3.0 | 6.0 | 0.00 | 0.00 | 0.00 | 57 | 1002.6 |
| 20260506021431 | 67 | 233 | 4.0 | 7.0 | 0.00 | 0.00 | 0.00 | 56 | 1002.7 |
| 20260506020630 | 67 | 213 | 4.0 | 7.0 | 0.00 | 0.00 | 0.00 | 56 | 1002.7 |
| 20260506020131 | 67 | 206 | 2.0 | 6.0 | 0.00 | 0.00 | 0.00 | 56 | 1002.6 |
| 20260506015927 | 67 | 223 | 2.0 | 4.0 | 0.00 | 0.00 | 0.00 | 55 | 1002.7 |
| 20260506015132 | 67 | 208 | 3.0 | 5.0 | 0.00 | 0.00 | 0.00 | 55 | 1002.6 |
| 20260506014629 | 67 | 245 | 2.0 | 5.0 | 0.00 | 0.00 | 0.00 | 55 | 1002.7 |
| 20260506014245 | 68 | 213 | 3.0 | 6.0 | 0.00 | 0.00 | 0.00 | 54 | 1002.7 |
| 20260506014134 | 67 | 220 | 2.0 | 4.0 | 0.00 | 0.00 | 0.00 | 54 | 1002.6 |
| 20260506014006 | 68 | 213 | 3.0 | 6.0 | 0.00 | 0.00 | 0.00 | 54 | 1002.7 |
| 20260506013130 | 68 | 221 | 3.0 | 6.0 | 0.00 | 0.00 | 0.00 | 54 | 1002.5 |
| 20260506012629 | 67 | 170 | 3.0 | 7.0 | 0.00 | 0.00 | 0.00 | 54 | 1002.3 |
| 20260506012130 | 67 | 227 | 3.0 | 7.0 | 0.00 | 0.00 | 0.00 | 54 | 1002.2 |
| 20260506011630 | 68 | 269 | 3.0 | 8.0 | 0.00 | 0.00 | 0.00 | 54 | 1002.1 |
| 20260506011127 | 68 | 226 | 3.0 | 8.0 | 0.00 | 0.00 | 0.00 | 54 | 1002.2 |
| 20260506010621 | 68 | 286 | 4.0 | 8.0 | 0.00 | 0.00 | 0.00 | 54 | 1002.1 |
| 20260506010114 | 68 | 238 | 4.0 | 8.0 | 0.00 | 0.00 | 0.00 | 54 | 1002.1 |
| 20260506005909 | 68 | 231 | 3.0 | 7.0 | 0.00 | 0.00 | 0.00 | 54 | 1002.0 |
| 20260506005109 | 68 | 262 | 3.0 | 6.0 | 0.00 | 0.00 | 0.00 | 54 | 1001.9 |
| 20260506004910 | 68 | 243 | 3.0 | 6.0 | 0.00 | 0.00 | 0.00 | 53 | 1002.0 |
| 20260506004109 | 68 | 226 | 3.0 | 6.0 | 0.00 | 0.00 | 0.00 | 54 | 1002.0 |
| 20260506003610 | 69 | 240 | 3.0 | 9.0 | 0.00 | 0.00 | 0.00 | 54 | 1002.0 |
| 20260506003110 | 69 | 227 | 4.0 | 9.0 | 0.00 | 0.00 | 0.00 | 53 | 1002.0 |
| 20260506002610 | 69 | 240 | 3.0 | 7.0 | 0.00 | 0.00 | 0.00 | 53 | 1002.1 |
| 20260506002110 | 69 | 226 | 4.0 | 7.0 | 0.00 | 0.00 | 0.00 | 53 | 1002.0 |
| 20260506001610 | 69 | 233 | 4.0 | 7.0 | 0.00 | 0.00 | 0.00 | 53 | 1001.9 |
| 20260506001111 | 69 | 245 | 3.0 | 6.0 | 0.00 | 0.00 | 0.00 | 53 | 1002.0 |
| 20260506000611 | 69 | 321 | 3.0 | 10.0 | 0.00 | 0.00 | 0.00 | 52 | 1001.9 |
| 20260506000110 | 69 | 222 | 4.0 | 10.0 | 0.00 | 0.00 | 0.00 | 52 | 1001.9 |
| 20260505235908 | 69 | 262 | 3.0 | 8.0 | 0.00 | 0.00 | 0.00 | 52 | 1001.9 |
| 20260505235111 | 69 | 226 | 3.0 | 7.0 | 0.00 | 0.00 | 0.00 | 52 | 1001.9 |
| 20260505234613 | 69 | 220 | 3.0 | 7.0 | 0.00 | 0.00 | 0.00 | 51 | 1001.9 |
| 20260505234109 | 69 | 236 | 4.0 | 7.0 | 0.00 | 0.00 | 0.00 | 52 | 1001.8 |
| 20260505233612 | 70 | 243 | 4.0 | 10.0 | 0.00 | 0.00 | 0.00 | 51 | 1001.7 |
| 20260505233107 | 70 | 216 | 4.0 | 10.0 | 0.00 | 0.00 | 0.00 | 50 | 1001.8 |
| 20260505232604 | 70 | 238 | 3.0 | 7.0 | 0.00 | 0.00 | 0.00 | 51 | 1001.7 |
| 20260505232104 | 70 | 197 | 3.0 | 7.0 | 0.00 | 0.00 | 0.00 | 50 | 1001.6 |
| 20260505231604 | 70 | 250 | 3.0 | 7.0 | 0.00 | 0.00 | 0.00 | 50 | 1001.7 |
| 20260505231103 | 70 | 274 | 4.0 | 7.0 | 0.00 | 0.00 | 0.00 | 49 | 1001.7 |
| 20260505230605 | 71 | 259 | 4.0 | 8.0 | 0.00 | 0.00 | 0.00 | 49 | 1001.6 |
| 20260505230112 | 71 | 293 | 3.0 | 8.0 | 0.00 | 0.00 | 0.00 | 48 | 1001.6 |
| 20260505225604 | 71 | 274 | 3.0 | 7.0 | 0.00 | 0.00 | 0.00 | 48 | 1001.5 |
| 20260505225102 | 71 | 217 | 4.0 | 8.0 | 0.00 | 0.00 | 0.00 | 48 | 1001.6 |
| 20260505224601 | 71 | 223 | 5.0 | 8.0 | 0.00 | 0.00 | 0.00 | 49 | 1001.5 |
| 20260505224102 | 71 | 206 | 6.0 | 13.0 | 0.00 | 0.00 | 0.00 | 47 | 1001.3 |
| 20260505223601 | 71 | 226 | 6.0 | 13.0 | 0.00 | 0.00 | 0.00 | 47 | 1001.2 |
| 20260505223102 | 72 | 233 | 6.0 | 13.0 | 0.00 | 0.00 | 0.00 | 46 | 1001.1 |
| 20260505222602 | 72 | 200 | 8.0 | 15.0 | 0.00 | 0.00 | 0.00 | 46 | 1001.2 |
| 20260505222400 | 72 | 224 | 8.0 | 16.0 | 0.00 | 0.00 | 0.00 | 46 | 1001.1 |
| 20260505221601 | 72 | 248 | 9.0 | 23.0 | 0.00 | 0.00 | 0.00 | 46 | 1001.1 |
| 20260505221102 | 72 | 234 | 9.0 | 23.0 | 0.00 | 0.00 | 0.00 | 46 | 1001.1 |
| 20260505220602 | 72 | 240 | 7.0 | 20.0 | 0.00 | 0.00 | 0.00 | 46 | 1001.1 |
| 20260505220404 | 72 | 200 | 6.0 | 12.0 | 0.00 | 0.00 | 0.00 | 46 | 1001.1 |
| 20260505215603 | 72 | 221 | 6.0 | 12.0 | 0.00 | 0.00 | 0.00 | 46 | 1000.9 |
| 20260505215103 | 73 | 223 | 6.0 | 12.0 | 0.00 | 0.00 | 0.00 | 46 | 1000.8 |
| 20260505214603 | 73 | 223 | 8.0 | 15.0 | 0.00 | 0.00 | 0.00 | 45 | 1000.9 |
| 20260505214108 | 74 | 201 | 8.0 | 16.0 | 0.00 | 0.00 | 0.00 | 45 | 1000.9 |
| 20260505213601 | 74 | 220 | 7.0 | 16.0 | 0.00 | 0.00 | 0.00 | 44 | 1000.9 |
| 20260505213417 | 74 | 226 | 9.0 | 21.0 | 0.00 | 0.00 | 0.00 | 45 | 1000.9 |
| 20260505212601 | 74 | 231 | 11.0 | 23.0 | 0.00 | 0.00 | 0.00 | 44 | 1001.0 |
| 20260505212104 | 75 | 257 | 11.0 | 23.0 | 0.00 | 0.00 | 0.00 | 43 | 1001.0 |
| 20260505211601 | 75 | 238 | 11.0 | 25.0 | 0.00 | 0.00 | 0.00 | 42 | 1000.9 |
| 20260505211102 | 76 | 223 | 11.0 | 25.0 | 0.00 | 0.00 | 0.00 | 43 | 1000.8 |
| 20260505210601 | 76 | 217 | 10.0 | 21.0 | 0.00 | 0.00 | 0.00 | 40 | 1000.7 |
| 20260505210104 | 76 | 229 | 10.0 | 21.0 | 0.00 | 0.00 | 0.00 | 40 | 1000.5 |
| 20260505205603 | 76 | 241 | 13.0 | 33.0 | 0.00 | 0.00 | 0.00 | 40 | 1000.3 |
| 20260505205104 | 75 | 190 | 15.0 | 33.0 | 0.00 | 0.00 | 0.00 | 40 | 1000.1 |
| 20260505204602 | 75 | 227 | 13.0 | 35.0 | 0.00 | 0.00 | 0.00 | 40 | 1000.2 |
| 20260505204103 | 74 | 191 | 12.0 | 35.0 | 0.00 | 0.00 | 0.00 | 41 | 1000.3 |
| 20260505203605 | 74 | 210 | 11.0 | 24.0 | 0.00 | 0.00 | 0.00 | 41 | 1000.3 |
| 20260505203102 | 73 | 236 | 12.0 | 24.0 | 0.00 | 0.00 | 0.00 | 40 | 1000.3 |
| 20260505202851 | 74 | 219 | 10.0 | 23.0 | 0.00 | 0.00 | 0.00 | 40 | 1000.3 |
| 20260505202102 | 74 | 182 | 9.0 | 23.0 | 0.00 | 0.00 | 0.00 | 40 | 1000.5 |